createdAt,value
2023-02-26T00:01:18.003Z,18.80
2023-02-26T00:03:52.771Z,18.80
2023-02-26T00:06:23.933Z,18.90
2023-02-26T00:08:54.953Z,18.80
2023-02-26T00:11:26.065Z,19.00
2023-02-26T00:13:57.187Z,19.00
2023-02-26T00:16:38.820Z,19.10
2023-02-26T00:19:12.262Z,19.20
2023-02-26T00:21:42.679Z,19.10
2023-02-26T00:24:13.243Z,19.20
2023-02-26T00:26:44.156Z,19.20
2023-02-26T00:29:15.298Z,19.30
2023-02-26T00:31:46.470Z,19.20
2023-02-26T00:34:17.573Z,19.40
2023-02-26T00:37:25.627Z,19.50
2023-02-26T00:40:18.110Z,19.70
2023-02-26T00:42:49.028Z,19.90
2023-02-26T00:45:19.754Z,19.90
2023-02-26T00:48:23.129Z,20.00
2023-02-26T00:51:12.363Z,20.10
2023-02-26T00:53:51.780Z,20.00
2023-02-26T00:56:22.637Z,20.20
2023-02-26T00:58:53.125Z,20.20
2023-02-26T01:01:23.686Z,20.30
2023-02-26T01:03:54.354Z,20.40
2023-02-26T01:06:29.091Z,20.60
2023-02-26T01:09:31.459Z,20.40
2023-02-26T01:12:06.376Z,20.50
2023-02-26T01:14:37.553Z,20.50
2023-02-26T01:17:34.219Z,20.70
2023-02-26T01:20:12.912Z,20.90
2023-02-26T01:22:58.081Z,20.90
2023-02-26T01:25:53.128Z,20.80
2023-02-26T01:28:23.868Z,21.00
2023-02-26T01:30:57.639Z,21.30
2023-02-26T01:33:43.086Z,21.20
2023-02-26T01:36:24.640Z,21.30
2023-02-26T01:39:34.182Z,21.30
2023-02-26T01:42:20.553Z,21.40
2023-02-26T01:45:15.318Z,21.50
2023-02-26T01:48:13.578Z,21.80
2023-02-26T01:50:43.817Z,21.80
2023-02-26T01:53:24.273Z,22.10
2023-02-26T01:55:59.458Z,22.30
2023-02-26T01:58:35.581Z,22.00
2023-02-26T02:01:07.746Z,22.10
2023-02-26T02:03:41.784Z,21.90
2023-02-26T02:06:23.616Z,21.90
2023-02-26T02:08:54.384Z,22.40
2023-02-26T02:11:26.303Z,22.60
2023-02-26T02:14:11.091Z,22.70
2023-02-26T02:16:58.244Z,22.90
2023-02-26T02:19:59.860Z,23.00
2023-02-26T02:23:03.291Z,23.10
2023-02-26T02:26:14.221Z,23.20
2023-02-26T02:29:17.395Z,23.30
2023-02-26T02:32:16.190Z,23.10
2023-02-26T02:35:02.468Z,23.70
2023-02-26T02:38:11.987Z,23.70
2023-02-26T02:40:48.513Z,23.90
2023-02-26T02:43:24.087Z,23.90
2023-02-26T02:46:18.527Z,24.00
2023-02-26T02:49:27.802Z,24.00
2023-02-26T02:52:30.221Z,24.00
2023-02-26T02:55:15.106Z,24.00
2023-02-26T02:58:13.131Z,24.30
2023-02-26T03:00:52.182Z,24.30
2023-02-26T03:04:02.592Z,24.30
2023-02-26T03:06:34.410Z,24.50
2023-02-26T03:09:09.410Z,24.70
2023-02-26T03:11:44.894Z,24.90
2023-02-26T03:14:17.361Z,25.00
2023-02-26T03:17:15.102Z,25.10
2023-02-26T03:20:27.130Z,25.00
2023-02-26T03:23:36.231Z,25.40
2023-02-26T03:26:19.084Z,25.50
2023-02-26T03:29:16.481Z,25.60
2023-02-26T03:32:04.133Z,26.00
2023-02-26T03:35:13.734Z,25.90
2023-02-26T03:37:51.193Z,26.00
2023-02-26T03:40:34.576Z,26.10
2023-02-26T03:43:15.313Z,25.80
2023-02-26T03:45:49.939Z,26.20
2023-02-26T03:48:25.191Z,26.20
2023-02-26T03:51:04.834Z,26.10
2023-02-26T03:54:19.662Z,26.20
2023-02-26T03:56:57.594Z,26.70
2023-02-26T03:59:47.346Z,26.50
2023-02-26T04:02:53.181Z,27.00
2023-02-26T04:05:31.018Z,26.70
2023-02-26T04:08:01.794Z,26.90
2023-02-26T04:10:42.478Z,27.10
2023-02-26T04:13:13.473Z,27.20
2023-02-26T04:15:44.089Z,26.90
2023-02-26T04:18:14.824Z,27.00
2023-02-26T04:20:45.676Z,27.30
2023-02-26T04:23:15.998Z,27.30
2023-02-26T04:25:46.709Z,27.60
2023-02-26T04:28:19.678Z,27.70
2023-02-26T04:30:51.303Z,27.90
2023-02-26T04:33:21.986Z,28.20
2023-02-26T04:35:52.690Z,27.90
2023-02-26T04:38:22.838Z,28.30
2023-02-26T04:40:53.935Z,28.20
2023-02-26T04:43:24.625Z,28.30
2023-02-26T04:46:10.301Z,28.10
2023-02-26T04:48:41.009Z,28.20
2023-02-26T04:51:11.483Z,28.30
2023-02-26T04:53:41.802Z,28.30
2023-02-26T04:56:13.739Z,28.70
2023-02-26T04:58:44.255Z,28.90
2023-02-26T05:01:22.266Z,28.60
2023-02-26T05:03:52.769Z,28.70
2023-02-26T05:06:23.864Z,28.50
2023-02-26T05:08:55.159Z,28.70
2023-02-26T05:11:25.579Z,28.40
2023-02-26T05:13:56.461Z,28.90
2023-02-26T05:16:28.209Z,29.10
2023-02-26T05:19:00.509Z,29.30
2023-02-26T05:21:33.081Z,29.10
2023-02-26T05:24:03.619Z,29.30
2023-02-26T05:26:34.382Z,29.60
2023-02-26T05:29:05.243Z,29.20
2023-02-26T05:31:36.389Z,29.20
2023-02-26T05:34:07.262Z,29.00
2023-02-26T05:36:38.363Z,29.70
2023-02-26T05:39:08.656Z,29.50
2023-02-26T05:41:39.189Z,29.90
2023-02-26T05:44:10.702Z,29.90
2023-02-26T05:46:40.942Z,30.00
2023-02-26T05:49:11.624Z,30.00
2023-02-26T05:51:44.319Z,29.80
2023-02-26T05:54:14.887Z,29.70
2023-02-26T05:56:45.687Z,30.10
2023-02-26T05:59:16.283Z,30.00
2023-02-26T06:01:47.173Z,29.80
2023-02-26T06:04:17.721Z,30.30
2023-02-26T06:06:48.164Z,30.40
2023-02-26T06:09:18.806Z,30.30
2023-02-26T06:11:49.009Z,30.60
2023-02-26T06:14:19.575Z,30.30
2023-02-26T06:16:49.634Z,30.40
2023-02-26T06:19:19.808Z,30.50
2023-02-26T06:21:50.500Z,30.50
2023-02-26T06:24:20.934Z,30.40
2023-02-26T06:26:51.128Z,30.80
2023-02-26T06:29:22.215Z,30.80
2023-02-26T06:31:52.516Z,30.80
2023-02-26T06:34:24.197Z,31.20
2023-02-26T06:36:54.635Z,30.90
2023-02-26T06:39:25.100Z,30.70
2023-02-26T06:41:55.515Z,31.00
2023-02-26T06:44:25.931Z,30.70
2023-02-26T06:46:56.584Z,30.90
2023-02-26T06:49:26.978Z,30.60
2023-02-26T06:51:57.064Z,31.10
2023-02-26T06:54:27.705Z,31.00
2023-02-26T06:56:59.372Z,31.20
2023-02-26T06:59:30.452Z,30.80
2023-02-26T07:02:00.537Z,31.10
2023-02-26T07:04:31.030Z,31.30
2023-02-26T07:07:01.228Z,31.20
2023-02-26T07:09:31.619Z,30.80
2023-02-26T07:12:01.940Z,30.90
2023-02-26T07:14:32.456Z,31.10
2023-02-26T07:17:04.086Z,31.50
2023-02-26T07:19:34.506Z,31.30
2023-02-26T07:22:05.434Z,31.70
2023-02-26T07:24:35.993Z,31.70
2023-02-26T07:27:06.778Z,31.70
2023-02-26T07:29:37.278Z,31.50
2023-02-26T07:32:09.301Z,31.40
2023-02-26T07:34:39.865Z,31.80
2023-02-26T07:37:11.032Z,31.30
2023-02-26T07:39:41.229Z,31.30
2023-02-26T07:42:12.124Z,31.50
2023-02-26T07:44:45.426Z,31.50
2023-02-26T07:47:15.709Z,31.40
2023-02-26T07:49:46.381Z,31.10
2023-02-26T07:52:16.890Z,31.40
2023-02-26T07:54:47.727Z,31.40
2023-02-26T07:57:18.316Z,31.50
2023-02-26T07:59:48.908Z,31.60
2023-02-26T08:02:19.551Z,31.50
2023-02-26T08:04:49.953Z,31.20
2023-02-26T08:07:20.472Z,31.50
2023-02-26T08:09:50.998Z,31.70
2023-02-26T08:12:22.105Z,31.60
2023-02-26T08:14:52.469Z,31.80
2023-02-26T08:17:22.619Z,31.50
2023-02-26T08:19:52.861Z,31.10
2023-02-26T08:22:25.282Z,31.10
2023-02-26T08:24:57.311Z,31.40
2023-02-26T08:27:28.590Z,31.10
2023-02-26T08:29:59.295Z,30.90
2023-02-26T08:32:29.809Z,31.10
2023-02-26T08:35:01.239Z,31.10
2023-02-26T08:37:32.291Z,31.10
2023-02-26T08:40:02.755Z,31.00
2023-02-26T08:42:32.832Z,31.10
2023-02-26T08:45:03.507Z,30.80
2023-02-26T08:47:35.416Z,31.00
2023-02-26T08:50:08.729Z,31.10
2023-02-26T08:52:40.364Z,31.10
2023-02-26T08:55:12.107Z,30.90
2023-02-26T08:57:42.211Z,30.80
2023-02-26T09:00:13.284Z,30.80
2023-02-26T09:02:43.844Z,30.80
2023-02-26T09:05:14.525Z,30.80
2023-02-26T09:07:45.487Z,30.60
2023-02-26T09:10:18.032Z,30.60
2023-02-26T09:12:48.582Z,30.40
2023-02-26T09:15:19.527Z,30.30
2023-02-26T09:17:51.102Z,30.60
2023-02-26T09:20:22.273Z,30.20
2023-02-26T09:22:52.480Z,30.20
2023-02-26T09:25:22.960Z,30.10
2023-02-26T09:27:53.382Z,30.20
2023-02-26T09:30:23.832Z,30.20
2023-02-26T09:32:54.335Z,29.80
2023-02-26T09:35:24.580Z,30.00
2023-02-26T09:37:55.030Z,30.00
2023-02-26T09:40:41.677Z,29.70
2023-02-26T09:43:48.147Z,29.90
2023-02-26T09:46:57.781Z,30.00
2023-02-26T09:49:57.785Z,29.80
2023-02-26T09:52:57.564Z,29.80
2023-02-26T09:55:49.312Z,29.60
2023-02-26T09:58:43.323Z,29.70
2023-02-26T10:01:34.316Z,29.50
2023-02-26T10:04:35.047Z,29.40
2023-02-26T10:07:43.951Z,29.40
2023-02-26T10:10:53.206Z,29.00
2023-02-26T10:13:57.080Z,29.00
2023-02-26T10:16:40.396Z,29.00
2023-02-26T10:19:23.117Z,29.00
2023-02-26T10:22:15.994Z,29.00
2023-02-26T10:24:56.395Z,28.90
2023-02-26T10:27:44.956Z,28.90
2023-02-26T10:30:50.788Z,28.90
2023-02-26T10:33:52.627Z,28.50
2023-02-26T10:36:47.126Z,28.40
2023-02-26T10:39:42.252Z,28.50
2023-02-26T10:42:33.913Z,28.50
2023-02-26T10:45:32.082Z,28.50
2023-02-26T10:48:41.670Z,28.40
2023-02-26T10:51:19.083Z,28.20
2023-02-26T10:53:59.071Z,28.00
2023-02-26T10:56:34.822Z,27.90
2023-02-26T10:59:05.087Z,27.90
2023-02-26T11:01:35.424Z,27.90
2023-02-26T11:04:26.737Z,27.70
2023-02-26T11:07:06.774Z,27.80
2023-02-26T11:09:45.600Z,27.90
2023-02-26T11:12:25.288Z,27.80
2023-02-26T11:14:55.747Z,27.70
2023-02-26T11:17:33.968Z,27.80
2023-02-26T11:20:16.810Z,27.80
2023-02-26T11:22:51.750Z,27.60
2023-02-26T11:25:26.216Z,27.30
2023-02-26T11:28:08.839Z,27.10
2023-02-26T11:30:41.261Z,26.90
2023-02-26T11:33:36.236Z,26.60
2023-02-26T11:36:17.271Z,26.70
2023-02-26T11:38:49.497Z,26.40
2023-02-26T11:41:20.737Z,26.40
2023-02-26T11:44:04.275Z,26.40
2023-02-26T11:46:39.076Z,26.10
2023-02-26T11:49:11.843Z,26.10
2023-02-26T11:51:47.793Z,26.00
2023-02-26T11:54:31.103Z,26.00
2023-02-26T11:57:22.739Z,26.00
2023-02-26T11:59:55.970Z,25.80
2023-02-26T12:02:34.128Z,25.80
2023-02-26T12:05:17.981Z,25.70
2023-02-26T12:07:50.387Z,25.70
2023-02-26T12:10:32.543Z,25.70
2023-02-26T12:13:28.846Z,25.60
2023-02-26T12:16:06.675Z,25.50
2023-02-26T12:19:03.355Z,25.50
2023-02-26T12:21:58.988Z,25.30
2023-02-26T12:25:00.217Z,25.10
2023-02-26T12:28:11.535Z,25.10
2023-02-26T12:31:20.785Z,25.00
2023-02-26T12:34:30.634Z,25.00
2023-02-26T12:37:35.591Z,25.00
2023-02-26T12:40:33.867Z,24.90
2023-02-26T12:43:18.469Z,24.80
2023-02-26T12:46:08.124Z,24.70
2023-02-26T12:49:15.592Z,24.70
2023-02-26T12:52:14.093Z,24.60
2023-02-26T12:55:23.246Z,24.50
2023-02-26T12:58:33.526Z,24.50
2023-02-26T13:01:32.365Z,24.40
2023-02-26T13:04:38.381Z,24.40
2023-02-26T13:07:35.635Z,24.40
2023-02-26T13:10:44.896Z,24.40
2023-02-26T13:13:46.072Z,24.30
2023-02-26T13:16:48.697Z,24.30
2023-02-26T13:19:46.318Z,24.30
2023-02-26T13:22:47.628Z,24.30
2023-02-26T13:25:40.332Z,24.10
2023-02-26T13:28:41.798Z,24.20
2023-02-26T13:31:27.252Z,24.10
2023-02-26T13:34:01.923Z,24.10
2023-02-26T13:36:35.146Z,24.10
2023-02-26T13:39:44.738Z,24.00
2023-02-26T13:42:54.390Z,23.90
2023-02-26T13:45:48.491Z,23.90
2023-02-26T13:48:53.947Z,23.80
2023-02-26T13:51:47.993Z,23.80
2023-02-26T13:54:50.817Z,23.80
2023-02-26T13:57:55.537Z,23.70
2023-02-26T14:00:37.101Z,23.70
2023-02-26T14:03:34.551Z,23.60
2023-02-26T14:06:27.497Z,23.60
2023-02-26T14:08:59.994Z,23.50
2023-02-26T14:12:06.060Z,23.50
2023-02-26T14:15:15.256Z,23.50
2023-02-26T14:18:04.600Z,23.40
2023-02-26T14:20:38.129Z,23.30
2023-02-26T14:23:31.383Z,23.30
2023-02-26T14:26:12.333Z,23.30
2023-02-26T14:28:57.452Z,23.20
2023-02-26T14:31:29.414Z,23.30
2023-02-26T14:34:18.600Z,23.30
2023-02-26T14:37:10.515Z,23.20
2023-02-26T14:39:46.710Z,23.10
2023-02-26T14:42:39.310Z,23.10
2023-02-26T14:45:38.838Z,23.00
2023-02-26T14:48:15.972Z,22.90
2023-02-26T14:51:20.560Z,22.90
2023-02-26T14:54:17.023Z,22.90
2023-02-26T14:57:18.655Z,22.90
2023-02-26T15:00:32.604Z,22.90
2023-02-26T15:03:42.114Z,22.90
2023-02-26T15:06:49.238Z,22.80
2023-02-26T15:09:54.148Z,22.80
2023-02-26T15:12:56.389Z,22.80
2023-02-26T15:16:05.937Z,22.70
2023-02-26T15:19:07.837Z,22.70
2023-02-26T15:22:10.703Z,22.80
2023-02-26T15:24:41.845Z,22.80
2023-02-26T15:27:19.757Z,22.60
2023-02-26T15:29:53.461Z,22.50
2023-02-26T15:32:32.726Z,22.50
2023-02-26T15:35:26.164Z,22.40
2023-02-26T15:38:02.674Z,22.50
2023-02-26T15:40:39.716Z,22.40
2023-02-26T15:43:14.235Z,22.40
2023-02-26T15:45:48.115Z,22.40
2023-02-26T15:48:46.181Z,22.30
2023-02-26T15:51:19.710Z,22.10
2023-02-26T15:53:53.046Z,22.10
2023-02-26T15:56:28.937Z,22.10
2023-02-26T15:59:05.097Z,22.10
2023-02-26T16:01:38.781Z,22.00
2023-02-26T16:04:15.867Z,22.00
2023-02-26T16:06:49.833Z,22.10
2023-02-26T16:09:33.032Z,22.00
2023-02-26T16:12:22.007Z,21.90
2023-02-26T16:15:01.102Z,22.00
2023-02-26T16:17:38.175Z,21.90
2023-02-26T16:20:20.177Z,21.90
2023-02-26T16:23:14.414Z,22.00
2023-02-26T16:25:57.821Z,21.90
2023-02-26T16:28:35.351Z,21.80
2023-02-26T16:31:07.364Z,22.00
2023-02-26T16:33:39.533Z,22.00
2023-02-26T16:36:19.789Z,21.90
2023-02-26T16:38:58.399Z,21.90
2023-02-26T16:41:31.910Z,21.80
2023-02-26T16:44:26.462Z,21.70
2023-02-26T16:46:56.710Z,21.70
2023-02-26T16:49:40.186Z,21.70
2023-02-26T16:52:28.803Z,21.70
2023-02-26T16:55:04.639Z,21.60
2023-02-26T16:57:41.909Z,21.70
2023-02-26T17:00:21.683Z,21.70
2023-02-26T17:02:52.852Z,21.60
2023-02-26T17:05:30.289Z,21.60
2023-02-26T17:08:21.536Z,21.40
2023-02-26T17:11:04.628Z,21.10
2023-02-26T17:13:37.660Z,21.10
2023-02-26T17:16:13.301Z,21.10
2023-02-26T17:18:43.856Z,21.20
2023-02-26T17:21:14.454Z,21.10
2023-02-26T17:23:46.456Z,21.00
2023-02-26T17:26:16.837Z,20.90
2023-02-26T17:28:47.250Z,20.90
2023-02-26T17:31:17.836Z,20.90
2023-02-26T17:33:48.289Z,21.00
2023-02-26T17:36:21.784Z,20.90
2023-02-26T17:38:52.100Z,20.70
2023-02-26T17:41:22.449Z,20.90
2023-02-26T17:43:53.266Z,20.70
2023-02-26T17:46:23.595Z,20.50
2023-02-26T17:48:53.973Z,20.60
2023-02-26T17:51:24.038Z,20.50
2023-02-26T17:53:54.169Z,20.50
2023-02-26T17:56:30.716Z,20.40
2023-02-26T17:59:01.729Z,20.60
2023-02-26T18:01:32.279Z,20.60
2023-02-26T18:04:02.967Z,20.40
2023-02-26T18:06:39.502Z,20.60
2023-02-26T18:09:09.657Z,20.40
2023-02-26T18:11:40.403Z,20.30
2023-02-26T18:14:11.612Z,20.60
2023-02-26T18:16:46.857Z,20.30
2023-02-26T18:19:17.106Z,20.10
2023-02-26T18:21:47.495Z,20.20
2023-02-26T18:24:17.524Z,20.20
2023-02-26T18:26:47.933Z,20.20
2023-02-26T18:29:18.690Z,20.10
2023-02-26T18:31:49.206Z,20.00
2023-02-26T18:34:19.707Z,20.00
2023-02-26T18:36:50.943Z,19.80
2023-02-26T18:39:21.972Z,19.90
2023-02-26T18:41:52.743Z,19.90
2023-02-26T18:44:23.810Z,19.70
2023-02-26T18:46:54.307Z,19.70
2023-02-26T18:49:24.593Z,19.60
2023-02-26T18:51:56.071Z,19.60
2023-02-26T18:54:26.559Z,19.50
2023-02-26T18:56:57.187Z,19.70
2023-02-26T18:59:28.028Z,19.70
2023-02-26T19:01:58.830Z,19.50
2023-02-26T19:04:29.740Z,19.60
2023-02-26T19:07:00.253Z,19.60
2023-02-26T19:09:30.834Z,19.60
2023-02-26T19:12:01.517Z,19.40
2023-02-26T19:14:31.874Z,19.40
2023-02-26T19:17:02.336Z,19.40
2023-02-26T19:19:32.790Z,19.30
2023-02-26T19:22:03.014Z,19.30
2023-02-26T19:24:33.674Z,19.40
2023-02-26T19:27:04.008Z,19.50
2023-02-26T19:29:35.542Z,19.20
2023-02-26T19:32:07.264Z,19.30
2023-02-26T19:34:37.845Z,19.20
2023-02-26T19:37:08.111Z,19.30
2023-02-26T19:39:38.965Z,19.30
2023-02-26T19:42:09.291Z,19.30
2023-02-26T19:44:39.414Z,19.20
2023-02-26T19:47:09.901Z,19.10
2023-02-26T19:49:40.263Z,19.10
2023-02-26T19:52:10.534Z,19.00
2023-02-26T19:54:40.636Z,19.20
2023-02-26T19:57:11.029Z,19.10
2023-02-26T19:59:41.413Z,19.10
2023-02-26T20:02:12.310Z,19.20
2023-02-26T20:04:42.847Z,19.00
2023-02-26T20:07:13.609Z,19.20
2023-02-26T20:09:43.750Z,19.20
2023-02-26T20:12:13.887Z,19.10
2023-02-26T20:14:44.112Z,19.00
2023-02-26T20:17:14.261Z,18.90
2023-02-26T20:19:46.025Z,18.80
2023-02-26T20:22:17.597Z,18.90
2023-02-26T20:24:47.857Z,19.00
2023-02-26T20:27:18.253Z,19.20
2023-02-26T20:29:48.760Z,19.10
2023-02-26T20:32:19.315Z,19.00
2023-02-26T20:34:49.648Z,18.90
2023-02-26T20:37:19.800Z,18.90
2023-02-26T20:39:50.450Z,18.90
2023-02-26T20:42:20.766Z,18.80
2023-02-26T20:44:51.210Z,18.80
2023-02-26T20:47:21.384Z,18.70
2023-02-26T20:49:51.614Z,18.70
2023-02-26T20:52:21.823Z,18.80
2023-02-26T20:54:52.308Z,18.70
2023-02-26T20:57:22.563Z,18.50
2023-02-26T20:59:52.656Z,18.60
2023-02-26T21:02:22.872Z,18.50
2023-02-26T21:04:53.512Z,18.50
2023-02-26T21:07:23.676Z,18.60
2023-02-26T21:09:54.163Z,18.60
2023-02-26T21:12:25.235Z,18.40
2023-02-26T21:14:57.242Z,18.60
2023-02-26T21:17:28.738Z,18.60
2023-02-26T21:19:59.706Z,18.40
2023-02-26T21:22:29.924Z,18.30
2023-02-26T21:25:00.648Z,18.40
2023-02-26T21:27:31.071Z,18.50
2023-02-26T21:30:01.127Z,18.40
2023-02-26T21:32:31.390Z,18.40
2023-02-26T21:35:01.259Z,18.20
2023-02-26T21:37:31.434Z,18.20
2023-02-26T21:40:01.798Z,18.20
2023-02-26T21:42:31.950Z,18.20
2023-02-26T21:45:02.029Z,18.20
2023-02-26T21:47:32.285Z,18.20
2023-02-26T21:50:02.676Z,18.20
2023-02-26T21:52:32.800Z,18.20
2023-02-26T21:55:02.868Z,18.20
2023-02-26T21:57:33.078Z,18.10
2023-02-26T22:00:03.457Z,18.10
2023-02-26T22:02:43.165Z,18.10
2023-02-26T22:05:14.919Z,18.30
2023-02-26T22:07:46.245Z,18.20
2023-02-26T22:10:16.512Z,18.20
2023-02-26T22:12:46.793Z,18.10
2023-02-26T22:15:16.960Z,18.10
2023-02-26T22:17:47.066Z,18.00
2023-02-26T22:20:17.702Z,17.90
2023-02-26T22:22:49.083Z,18.00
2023-02-26T22:25:19.615Z,17.90
2023-02-26T22:27:49.839Z,18.00
2023-02-26T22:30:20.392Z,17.90
2023-02-26T22:32:50.505Z,18.00
2023-02-26T22:35:21.794Z,18.10
2023-02-26T22:37:52.116Z,18.10
2023-02-26T22:40:22.700Z,18.10
2023-02-26T22:42:53.349Z,17.90
2023-02-26T22:45:23.969Z,18.10
2023-02-26T22:47:54.846Z,18.00
2023-02-26T22:50:25.592Z,17.90
2023-02-26T22:52:55.714Z,17.80
2023-02-26T22:55:25.868Z,17.70
2023-02-26T22:57:55.990Z,17.80
2023-02-26T23:00:26.455Z,17.70
2023-02-26T23:02:56.645Z,17.70
2023-02-26T23:05:26.993Z,17.80
2023-02-26T23:07:57.361Z,17.60
2023-02-26T23:10:27.581Z,17.70
2023-02-26T23:13:01.542Z,17.70
2023-02-26T23:15:31.820Z,17.80
2023-02-26T23:18:01.848Z,17.70
2023-02-26T23:20:32.328Z,17.60
2023-02-26T23:23:03.495Z,17.50
2023-02-26T23:25:33.931Z,17.60
2023-02-26T23:28:04.224Z,17.50
2023-02-26T23:30:35.796Z,17.40
2023-02-26T23:33:08.661Z,17.50
2023-02-26T23:35:39.137Z,17.50
2023-02-26T23:38:09.810Z,17.40
2023-02-26T23:40:40.000Z,17.50
2023-02-26T23:43:10.209Z,17.40
2023-02-26T23:45:40.493Z,17.40
2023-02-26T23:48:10.994Z,17.40
2023-02-26T23:50:41.964Z,17.60
2023-02-26T23:53:12.218Z,17.70
2023-02-26T23:55:42.485Z,17.60
2023-02-26T23:58:12.638Z,17.60
